createdAt,value
2022-09-28T00:00:17.740Z,53.50
2022-09-28T00:03:25.681Z,53.50
2022-09-28T00:06:33.657Z,53.60
2022-09-28T00:09:41.533Z,53.70
2022-09-28T00:12:49.666Z,53.70
2022-09-28T00:16:03.654Z,53.60
2022-09-28T00:19:11.809Z,53.60
2022-09-28T00:22:19.863Z,53.70
2022-09-28T00:25:28.065Z,53.70
2022-09-28T00:28:36.167Z,53.60
2022-09-28T00:31:45.786Z,53.70
2022-09-28T00:34:53.778Z,53.60
2022-09-28T00:38:02.320Z,53.60
2022-09-28T00:41:11.451Z,53.60
2022-09-28T00:44:39.334Z,53.60
2022-09-28T00:47:51.435Z,53.60
2022-09-28T00:51:00.233Z,53.60
2022-09-28T00:54:09.499Z,53.60
2022-09-28T00:57:18.834Z,53.60
2022-09-28T01:00:26.706Z,53.60
2022-09-28T01:03:36.104Z,53.60
2022-09-28T01:06:43.805Z,53.60
2022-09-28T01:09:52.314Z,53.70
2022-09-28T01:13:00.386Z,53.60
2022-09-28T01:16:12.877Z,53.60
2022-09-28T01:19:31.497Z,53.60
2022-09-28T01:23:06.627Z,53.50
2022-09-28T01:26:53.565Z,53.50
2022-09-28T01:30:04.514Z,53.50
2022-09-28T01:33:14.933Z,53.40
2022-09-28T01:36:25.566Z,53.40
2022-09-28T01:39:35.502Z,53.40
2022-09-28T01:42:46.014Z,53.30
2022-09-28T01:45:55.510Z,53.30
2022-09-28T01:49:04.874Z,53.20
2022-09-28T01:52:16.669Z,53.30
2022-09-28T01:55:27.958Z,53.20
2022-09-28T01:58:38.572Z,53.20
2022-09-28T02:01:48.926Z,53.20
2022-09-28T02:04:58.637Z,53.20
2022-09-28T02:08:08.857Z,53.10
2022-09-28T02:11:18.196Z,53.20
2022-09-28T02:14:28.235Z,53.20
2022-09-28T02:17:36.270Z,53.10
2022-09-28T02:20:47.221Z,53.00
2022-09-28T02:23:57.709Z,53.00
2022-09-28T02:27:09.904Z,53.00
2022-09-28T02:30:19.312Z,53.00
2022-09-28T02:33:29.472Z,53.00
2022-09-28T02:36:37.406Z,53.10
2022-09-28T02:39:45.565Z,53.10
2022-09-28T02:42:55.125Z,53.10
2022-09-28T02:46:07.536Z,53.20
2022-09-28T02:49:27.034Z,53.10
2022-09-28T02:52:57.893Z,53.20
2022-09-28T02:56:18.615Z,53.20
2022-09-28T02:59:38.076Z,53.10
2022-09-28T03:02:51.769Z,53.20
2022-09-28T03:06:01.316Z,53.20
2022-09-28T03:09:18.703Z,53.20
2022-09-28T03:12:29.256Z,53.20
2022-09-28T03:15:38.014Z,53.20
2022-09-28T03:18:47.337Z,53.20
2022-09-28T03:21:55.622Z,53.20
2022-09-28T03:25:03.747Z,53.30
2022-09-28T03:28:11.724Z,53.20
2022-09-28T03:31:22.008Z,53.10
2022-09-28T03:34:31.353Z,53.20
2022-09-28T03:37:39.461Z,53.30
2022-09-28T03:40:54.134Z,53.20
2022-09-28T03:44:02.202Z,53.80
2022-09-28T03:47:11.271Z,53.10
2022-09-28T03:50:20.900Z,53.10
2022-09-28T03:53:29.992Z,53.20
2022-09-28T03:56:38.483Z,53.20
2022-09-28T03:59:46.549Z,53.10
2022-09-28T04:02:55.617Z,53.10
2022-09-28T04:06:05.090Z,53.20
2022-09-28T04:09:12.841Z,53.20
2022-09-28T04:12:22.403Z,53.10
2022-09-28T04:15:30.578Z,53.10
2022-09-28T04:18:38.689Z,53.10
2022-09-28T04:22:07.719Z,53.10
2022-09-28T04:25:16.021Z,53.10
2022-09-28T04:28:41.410Z,53.00
2022-09-28T04:31:50.525Z,53.00
2022-09-28T04:34:59.042Z,53.00
2022-09-28T04:38:08.375Z,53.50
2022-09-28T04:41:16.952Z,52.90
2022-09-28T04:44:24.736Z,52.90
2022-09-28T04:47:38.473Z,52.80
2022-09-28T04:51:18.685Z,53.40
2022-09-28T04:54:28.397Z,53.90
2022-09-28T04:57:37.873Z,54.00
2022-09-28T05:00:45.971Z,53.90
2022-09-28T05:04:14.026Z,54.10
2022-09-28T05:07:36.335Z,54.20
2022-09-28T05:10:48.138Z,54.20
2022-09-28T05:13:56.723Z,54.30
2022-09-28T05:17:05.830Z,54.20
2022-09-28T05:20:20.902Z,54.00
2022-09-28T05:23:28.832Z,53.90
2022-09-28T05:26:39.996Z,53.80
2022-09-28T05:29:51.387Z,53.70
2022-09-28T05:33:19.378Z,53.80
2022-09-28T05:36:39.100Z,53.60
2022-09-28T05:39:46.951Z,53.60
2022-09-28T05:42:59.569Z,53.60
2022-09-28T05:46:08.135Z,53.40
2022-09-28T05:49:19.139Z,53.50
2022-09-28T05:52:28.125Z,53.40
2022-09-28T05:55:37.152Z,53.40
2022-09-28T05:58:46.464Z,53.30
2022-09-28T06:01:55.502Z,53.30
2022-09-28T06:05:03.708Z,53.30
2022-09-28T06:08:11.782Z,53.20
2022-09-28T06:11:26.960Z,53.20
2022-09-28T06:14:36.910Z,53.00
2022-09-28T06:17:44.989Z,53.10
2022-09-28T06:21:16.199Z,53.10
2022-09-28T06:24:26.788Z,53.00
2022-09-28T06:27:35.214Z,53.00
2022-09-28T06:30:45.198Z,52.90
2022-09-28T06:33:57.475Z,52.90
2022-09-28T06:37:05.319Z,52.80
2022-09-28T06:40:13.877Z,52.90
2022-09-28T06:43:21.781Z,52.80
2022-09-28T06:46:49.646Z,52.80
2022-09-28T06:50:03.296Z,52.70
2022-09-28T06:53:34.023Z,52.70
2022-09-28T06:56:59.453Z,52.70
2022-09-28T07:00:08.721Z,52.70
2022-09-28T07:03:19.862Z,52.60
2022-09-28T07:06:47.911Z,52.60
2022-09-28T07:10:13.504Z,52.60
2022-09-28T07:13:50.448Z,52.50
2022-09-28T07:17:13.210Z,52.50
2022-09-28T07:20:25.045Z,52.50
2022-09-28T07:23:35.595Z,52.50
2022-09-28T07:27:07.186Z,52.50
2022-09-28T07:30:19.756Z,52.40
2022-09-28T07:33:59.847Z,52.40
2022-09-28T07:37:18.854Z,52.40
2022-09-28T07:40:48.365Z,52.50
2022-09-28T07:43:58.954Z,52.40
2022-09-28T07:47:07.142Z,52.40
2022-09-28T07:50:40.993Z,52.40
2022-09-28T07:54:00.998Z,52.30
2022-09-28T07:57:21.509Z,52.30
2022-09-28T08:00:34.567Z,52.30
2022-09-28T08:03:45.315Z,52.20
2022-09-28T08:06:53.527Z,52.20
2022-09-28T08:10:03.828Z,52.10
2022-09-28T08:13:11.633Z,52.20
2022-09-28T08:16:35.577Z,52.10
2022-09-28T08:20:13.442Z,52.10
2022-09-28T08:23:21.844Z,52.00
2022-09-28T08:26:31.917Z,52.00
2022-09-28T08:29:39.782Z,51.90
2022-09-28T08:33:17.806Z,51.90
2022-09-28T08:36:44.295Z,51.90
2022-09-28T08:40:12.205Z,51.80
2022-09-28T08:43:52.737Z,51.80
2022-09-28T08:47:07.713Z,51.80
2022-09-28T08:50:46.953Z,51.70
2022-09-28T08:54:08.091Z,51.70
2022-09-28T08:57:31.600Z,51.70
2022-09-28T09:00:43.292Z,51.60
2022-09-28T09:03:52.289Z,51.60
2022-09-28T09:07:28.341Z,51.60
2022-09-28T09:10:51.852Z,51.60
2022-09-28T09:14:28.944Z,51.50
2022-09-28T09:17:44.790Z,51.50
2022-09-28T09:21:28.735Z,51.50
2022-09-28T09:24:39.849Z,51.50
2022-09-28T09:27:56.633Z,51.50
2022-09-28T09:31:09.709Z,51.40
2022-09-28T09:34:39.773Z,51.40
2022-09-28T09:38:19.185Z,51.40
2022-09-28T09:41:53.269Z,51.40
2022-09-28T09:45:31.309Z,51.40
2022-09-28T09:49:02.306Z,51.40
2022-09-28T09:52:15.658Z,51.40
2022-09-28T09:55:30.101Z,51.40
2022-09-28T09:58:57.390Z,51.30
2022-09-28T10:02:16.744Z,51.30
2022-09-28T10:05:33.237Z,51.30
2022-09-28T10:08:45.301Z,51.30
2022-09-28T10:11:54.803Z,51.30
2022-09-28T10:15:03.370Z,51.30
2022-09-28T10:18:14.013Z,51.30
2022-09-28T10:21:41.104Z,51.30
2022-09-28T10:25:08.879Z,51.30
2022-09-28T10:28:18.854Z,51.20
2022-09-28T10:31:40.742Z,51.20
2022-09-28T10:35:14.291Z,51.20
2022-09-28T10:38:24.551Z,51.30
2022-09-28T10:41:37.478Z,51.20
2022-09-28T10:44:57.797Z,51.10
2022-09-28T10:48:19.461Z,51.20
2022-09-28T10:51:41.172Z,51.10
2022-09-28T10:54:54.249Z,51.10
2022-09-28T10:58:25.125Z,51.10
2022-09-28T11:01:34.383Z,51.10
2022-09-28T11:04:44.885Z,51.10
2022-09-28T11:07:55.351Z,51.00
2022-09-28T11:11:12.118Z,51.00
2022-09-28T11:14:26.720Z,51.00
2022-09-28T11:17:40.386Z,51.00
2022-09-28T11:20:49.516Z,51.00
2022-09-28T11:24:01.204Z,51.00
2022-09-28T11:27:12.541Z,51.00
2022-09-28T11:30:24.790Z,50.90
2022-09-28T11:33:52.812Z,50.90
2022-09-28T11:37:38.834Z,50.80
2022-09-28T11:40:52.212Z,50.90
2022-09-28T11:44:22.942Z,51.00
2022-09-28T11:47:48.239Z,50.80
2022-09-28T11:50:59.388Z,50.90
2022-09-28T11:54:14.234Z,50.90
2022-09-28T11:57:25.184Z,50.80
2022-09-28T12:00:34.978Z,50.80
2022-09-28T12:03:49.266Z,50.70
2022-09-28T12:07:00.607Z,50.70
2022-09-28T12:10:11.742Z,50.80
2022-09-28T12:13:22.597Z,50.70
2022-09-28T12:17:03.739Z,50.70
2022-09-28T12:20:04.502Z,50.70
2022-09-28T12:23:14.285Z,50.60
2022-09-28T12:26:27.967Z,50.70
2022-09-28T12:29:40.683Z,50.60
2022-09-28T12:32:50.518Z,50.60
2022-09-28T12:36:08.836Z,50.60
2022-09-28T12:39:53.582Z,50.60
2022-09-28T12:43:29.993Z,50.60
2022-09-28T12:46:46.007Z,50.50
2022-09-28T12:53:49.741Z,50.60
2022-09-28T12:57:02.242Z,50.60
2022-09-28T13:00:11.287Z,50.60
2022-09-28T13:03:45.566Z,50.60
2022-09-28T13:06:57.963Z,50.50
2022-09-28T13:10:13.915Z,50.60
2022-09-28T13:13:29.160Z,50.60
2022-09-28T13:16:38.856Z,50.60
2022-09-28T13:19:49.892Z,50.50
2022-09-28T13:23:02.259Z,50.50
2022-09-28T13:26:16.248Z,50.50
2022-09-28T13:29:24.342Z,50.50
2022-09-28T13:32:32.289Z,50.50
2022-09-28T13:35:43.016Z,50.40
2022-09-28T13:38:51.949Z,50.50
2022-09-28T13:42:02.637Z,50.50
2022-09-28T13:45:33.301Z,50.40
2022-09-28T13:48:45.016Z,50.50
2022-09-28T13:52:03.894Z,50.50
2022-09-28T13:55:22.102Z,50.40
2022-09-28T13:58:32.214Z,50.40
2022-09-28T14:01:41.458Z,50.40
2022-09-28T14:04:57.372Z,50.30
2022-09-28T14:08:28.522Z,50.40
2022-09-28T14:11:42.533Z,50.40
2022-09-28T14:14:51.969Z,50.40
2022-09-28T14:18:02.184Z,50.40
2022-09-28T14:21:42.734Z,50.40
2022-09-28T14:25:04.602Z,50.40
2022-09-28T14:28:30.728Z,50.40
2022-09-28T14:31:42.332Z,50.60
2022-09-28T14:34:56.911Z,50.60
2022-09-28T14:38:23.664Z,51.30
2022-09-28T14:41:34.162Z,50.70
2022-09-28T14:45:35.207Z,50.80
2022-09-28T14:48:45.855Z,50.90
2022-09-28T14:52:03.147Z,51.00
2022-09-28T14:55:18.530Z,51.00
2022-09-28T14:58:27.455Z,51.10
2022-09-28T15:01:35.378Z,51.70
2022-09-28T15:04:46.652Z,51.10
2022-09-28T15:07:55.073Z,51.20
2022-09-28T15:11:03.202Z,51.10
2022-09-28T15:14:11.653Z,51.10
2022-09-28T15:17:21.134Z,51.10
2022-09-28T15:20:31.298Z,51.10
2022-09-28T15:23:40.303Z,51.10
2022-09-28T15:26:48.975Z,51.10
2022-09-28T15:29:58.456Z,51.10
2022-09-28T15:33:23.894Z,51.20
2022-09-28T15:36:34.645Z,51.20
2022-09-28T15:39:42.660Z,51.20
2022-09-28T15:42:50.672Z,51.30
2022-09-28T15:46:02.978Z,51.20
2022-09-28T15:49:20.921Z,51.30
2022-09-28T15:52:36.029Z,51.40
2022-09-28T15:55:44.057Z,51.40
2022-09-28T15:59:10.349Z,51.40
2022-09-28T16:02:18.869Z,51.30
2022-09-28T16:05:36.014Z,51.40
2022-09-28T16:08:45.506Z,51.50
2022-09-28T16:11:53.606Z,51.70
2022-09-28T16:15:05.096Z,51.50
2022-09-28T16:18:18.996Z,51.40
2022-09-28T16:21:46.413Z,51.40
2022-09-28T16:24:56.829Z,51.40
2022-09-28T16:28:04.930Z,51.40
2022-09-28T16:31:27.114Z,51.40
2022-09-28T16:34:35.297Z,51.40
2022-09-28T16:37:43.114Z,51.40
2022-09-28T16:40:53.786Z,51.40
2022-09-28T16:44:02.790Z,51.30
2022-09-28T16:47:10.512Z,51.30
2022-09-28T16:50:18.529Z,51.30
2022-09-28T16:53:44.166Z,51.30
2022-09-28T16:56:53.282Z,51.30
2022-09-28T17:00:01.888Z,51.30
2022-09-28T17:03:17.274Z,51.30
2022-09-28T17:06:25.712Z,51.20
2022-09-28T17:09:33.817Z,51.20
2022-09-28T17:12:43.169Z,51.20
2022-09-28T17:15:51.240Z,51.20
2022-09-28T17:18:59.343Z,51.70
2022-09-28T17:22:07.915Z,52.50
2022-09-28T17:25:15.947Z,52.30
2022-09-28T17:28:26.784Z,52.90
2022-09-28T17:31:34.837Z,52.50
2022-09-28T17:34:44.036Z,52.50
2022-09-28T17:37:53.818Z,52.40
2022-09-28T17:41:01.654Z,52.50
2022-09-28T17:44:11.027Z,53.00
2022-09-28T17:47:19.304Z,52.90
2022-09-28T17:50:28.095Z,53.50
2022-09-28T17:53:35.872Z,53.90
2022-09-28T17:56:43.935Z,54.20
2022-09-28T17:59:53.423Z,53.70
2022-09-28T18:03:01.565Z,53.70
2022-09-28T18:06:13.033Z,54.10
2022-09-28T18:09:25.218Z,54.40
2022-09-28T18:12:33.346Z,54.10
2022-09-28T18:15:43.103Z,54.00
2022-09-28T18:18:51.097Z,53.90
2022-09-28T18:21:59.261Z,53.90
2022-09-28T18:25:08.357Z,54.10
2022-09-28T18:28:16.078Z,54.00
2022-09-28T18:31:25.710Z,53.90
2022-09-28T18:34:36.465Z,54.00
2022-09-28T18:37:44.404Z,54.00
2022-09-28T18:40:54.431Z,53.70
2022-09-28T18:44:02.730Z,55.10
2022-09-28T18:47:13.517Z,53.80
2022-09-28T18:50:21.477Z,54.00
2022-09-28T18:53:29.566Z,54.00
2022-09-28T18:56:38.069Z,54.10
2022-09-28T18:59:46.241Z,54.10
2022-09-28T19:02:55.846Z,54.00
2022-09-28T19:06:03.995Z,54.00
2022-09-28T19:09:11.912Z,54.00
2022-09-28T19:12:19.814Z,53.90
2022-09-28T19:15:27.833Z,54.10
2022-09-28T19:18:37.254Z,54.00
2022-09-28T19:21:45.229Z,54.20
2022-09-28T19:24:53.756Z,54.10
2022-09-28T19:28:02.437Z,54.20
2022-09-28T19:31:11.971Z,54.20
2022-09-28T19:34:24.260Z,54.90
2022-09-28T19:37:35.298Z,54.10
2022-09-28T19:40:44.161Z,53.90
2022-09-28T19:43:52.154Z,53.90
2022-09-28T19:47:07.318Z,54.00
2022-09-28T19:50:16.780Z,54.00
2022-09-28T19:53:24.954Z,53.90
2022-09-28T19:56:32.997Z,53.90
2022-09-28T19:59:41.105Z,53.90
2022-09-28T20:02:49.132Z,53.70
2022-09-28T20:06:01.755Z,53.70
2022-09-28T20:09:09.821Z,53.60
2022-09-28T20:12:17.602Z,53.60
2022-09-28T20:15:25.776Z,53.60
2022-09-28T20:18:35.280Z,53.50
2022-09-28T20:21:44.834Z,53.40
2022-09-28T20:24:52.846Z,53.40
2022-09-28T20:28:01.051Z,53.40
2022-09-28T20:31:09.578Z,53.30
2022-09-28T20:34:17.482Z,53.40
2022-09-28T20:37:26.940Z,53.20
2022-09-28T20:40:36.472Z,53.20
2022-09-28T20:43:44.677Z,53.20
2022-09-28T20:46:52.596Z,53.10
2022-09-28T20:50:00.292Z,53.10
2022-09-28T20:53:09.822Z,53.00
2022-09-28T20:56:19.078Z,53.20
2022-09-28T20:59:27.677Z,53.10
2022-09-28T21:02:35.897Z,53.10
2022-09-28T21:05:43.762Z,53.10
2022-09-28T21:08:53.249Z,53.00
2022-09-28T21:12:01.694Z,53.00
2022-09-28T21:15:10.754Z,53.00
2022-09-28T21:18:18.605Z,53.00
2022-09-28T21:21:26.868Z,53.20
2022-09-28T21:24:35.936Z,53.00
2022-09-28T21:27:45.892Z,52.90
2022-09-28T21:30:53.665Z,52.80
2022-09-28T21:34:01.773Z,52.80
2022-09-28T21:37:09.745Z,52.80
2022-09-28T21:40:19.978Z,52.80
2022-09-28T21:43:28.801Z,52.90
2022-09-28T21:46:37.051Z,52.90
2022-09-28T21:49:44.974Z,52.90
2022-09-28T21:52:53.876Z,52.90
2022-09-28T21:56:03.725Z,52.90
2022-09-28T21:59:11.769Z,52.90
2022-09-28T22:02:19.660Z,52.90
2022-09-28T22:05:28.098Z,52.90
2022-09-28T22:08:36.241Z,52.90
2022-09-28T22:11:45.647Z,52.90
2022-09-28T22:14:53.686Z,52.90
2022-09-28T22:18:01.852Z,52.90
2022-09-28T22:21:11.670Z,52.90
2022-09-28T22:24:19.660Z,52.80
2022-09-28T22:27:31.555Z,52.80
2022-09-28T22:30:39.994Z,52.90
2022-09-28T22:33:47.916Z,52.80
2022-09-28T22:36:56.010Z,52.90
2022-09-28T22:40:04.573Z,52.90
2022-09-28T22:43:13.950Z,52.90
2022-09-28T22:46:22.845Z,52.90
2022-09-28T22:49:31.497Z,52.90
2022-09-28T22:52:39.259Z,52.90
2022-09-28T22:55:47.049Z,52.90
2022-09-28T22:58:56.311Z,52.90
2022-09-28T23:02:04.284Z,52.90
2022-09-28T23:05:12.216Z,52.90
2022-09-28T23:08:20.033Z,52.90
2022-09-28T23:11:28.763Z,52.90
2022-09-28T23:14:38.261Z,52.80
2022-09-28T23:17:46.366Z,52.80
2022-09-28T23:20:55.015Z,52.80
2022-09-28T23:24:03.132Z,52.80
2022-09-28T23:27:10.928Z,52.80
2022-09-28T23:30:21.586Z,52.80
2022-09-28T23:33:29.573Z,52.80
2022-09-28T23:36:37.614Z,52.70
2022-09-28T23:39:45.890Z,52.70
2022-09-28T23:42:53.789Z,52.70
2022-09-28T23:46:03.011Z,52.80
2022-09-28T23:49:11.264Z,52.70
2022-09-28T23:52:19.083Z,52.70
2022-09-28T23:55:26.922Z,52.60
2022-09-28T23:58:34.977Z,52.60
